Time,TemperatureF,DewpointF,PressureIn,WindDirection,WindDirectionDegrees,WindSpeedMPH,WindSpeedGustMPH,Humidity,HourlyPrecipIn,Conditions,Clouds,dailyrainin,SoftwareType,DateUTC
2013-03-12 00:00:00,37.1,31.2,29.93,NNW,338,2.0,2.0,79,0.00,,,0.00,Wunderground v.1.15,2013-03-12 04:00:00,
2013-03-12 00:10:00,37.1,30.9,29.94,WNW,293,3.0,3.0,78,0.00,,,0.00,Wunderground v.1.15,2013-03-12 04:10:00,
2013-03-12 00:20:00,36.9,31.0,29.93,North,355,3.0,10.0,79,0.00,,,0.00,Wunderground v.1.15,2013-03-12 04:20:00,
2013-03-12 00:29:00,37.0,31.1,29.94,West,281,2.0,2.0,79,0.00,,,0.00,Wunderground v.1.15,2013-03-12 04:29:00,
2013-03-12 00:40:00,36.9,31.0,29.93,NW,311,2.0,3.0,79,0.00,,,0.00,Wunderground v.1.15,2013-03-12 04:40:00,
2013-03-12 00:50:00,36.7,30.8,29.94,West,270,3.0,3.0,79,0.00,,,0.00,Wunderground v.1.15,2013-03-12 04:50:00,
2013-03-12 01:00:00,36.6,30.7,29.94,SW,225,2.0,3.0,79,0.00,,,0.00,Wunderground v.1.15,2013-03-12 05:00:00,
2013-03-12 01:10:00,36.6,31.0,29.94,West,279,2.0,2.0,80,0.00,,,0.00,Wunderground v.1.15,2013-03-12 05:10:00,
2013-03-12 01:20:00,36.8,30.9,29.94,WNW,288,2.0,2.0,79,0.00,,,0.00,Wunderground v.1.15,2013-03-12 05:20:00,
2013-03-12 01:30:00,36.7,30.5,29.94,North,350,2.0,2.0,78,0.00,,,0.00,Wunderground v.1.15,2013-03-12 05:30:00,
2013-03-12 01:40:00,36.7,30.5,29.94,West,261,1.0,2.0,78,0.00,,,0.00,Wunderground v.1.15,2013-03-12 05:40:00,
2013-03-12 01:50:00,36.6,30.4,29.94,WNW,290,2.0,2.0,78,0.00,,,0.00,Wunderground v.1.15,2013-03-12 05:50:00,
2013-03-12 02:00:00,36.6,30.1,29.94,SW,228,1.0,2.0,77,0.00,,,0.00,Wunderground v.1.15,2013-03-12 06:00:00,
2013-03-12 02:10:00,36.5,30.0,29.95,North,5,3.0,3.0,77,0.00,,,0.00,Wunderground v.1.15,2013-03-12 06:10:00,
2013-03-12 02:20:00,36.4,29.6,29.95,North,355,2.0,4.0,76,0.00,,,0.00,Wunderground v.1.15,2013-03-12 06:20:00,
2013-03-12 02:30:00,36.4,29.6,29.95,SW,221,2.0,2.0,76,0.00,,,0.00,Wunderground v.1.15,2013-03-12 06:30:00,
2013-03-12 02:40:00,36.4,29.2,29.95,West,264,2.0,2.0,75,0.00,,,0.00,Wunderground v.1.15,2013-03-12 06:40:00,
2013-03-12 02:50:00,36.4,29.2,29.95,WNW,299,2.0,2.0,75,0.00,,,0.00,Wunderground v.1.15,2013-03-12 06:50:00,
2013-03-12 03:00:00,36.4,29.6,29.95,SW,234,2.0,2.0,76,0.00,,,0.00,Wunderground v.1.15,2013-03-12 07:00:00,
2013-03-12 03:09:00,36.3,29.1,29.96,NW,313,2.0,3.0,75,0.00,,,0.00,Wunderground v.1.15,2013-03-12 07:09:00,
2013-03-12 03:20:00,36.3,29.1,29.95,WSW,242,2.0,2.0,75,0.00,,,0.00,Wunderground v.1.15,2013-03-12 07:20:00,
2013-03-12 03:30:00,36.3,29.5,29.95,SSE,153,1.0,1.0,76,0.00,,,0.00,Wunderground v.1.15,2013-03-12 07:30:00,
2013-03-12 03:40:00,36.2,29.4,29.95,North,360,3.0,3.0,76,0.00,,,0.00,Wunderground v.1.15,2013-03-12 07:40:00,
2013-03-12 03:49:00,36.1,29.3,29.95,WNW,296,4.0,4.0,76,0.00,,,0.00,Wunderground v.1.15,2013-03-12 07:49:00,
2013-03-12 04:00:00,36.1,29.3,29.95,WNW,298,2.0,5.0,76,0.00,,,0.00,Wunderground v.1.15,2013-03-12 08:00:00,
2013-03-12 04:10:00,36.0,29.5,29.95,West,275,2.0,2.0,77,0.00,,,0.00,Wunderground v.1.15,2013-03-12 08:10:00,
2013-03-12 04:20:00,36.1,28.9,29.95,WNW,282,2.0,2.0,75,0.00,,,0.00,Wunderground v.1.15,2013-03-12 08:20:00,
2013-03-12 04:29:00,36.3,29.5,29.95,NW,325,1.0,1.0,76,0.00,,,0.00,Wunderground v.1.15,2013-03-12 08:29:00,
2013-03-12 04:39:00,36.3,29.5,29.95,WNW,296,1.0,1.0,76,0.00,,,0.00,Wunderground v.1.15,2013-03-12 08:39:00,
2013-03-12 04:50:00,36.3,29.1,29.95,West,271,1.0,2.0,75,0.00,,,0.00,Wunderground v.1.15,2013-03-12 08:50:00,
2013-03-12 05:00:00,36.0,28.8,29.95,WNW,295,4.0,4.0,75,0.00,,,0.00,Wunderground v.1.15,2013-03-12 09:00:00,
2013-03-12 05:10:00,36.0,28.8,29.95,NW,321,4.0,4.0,75,0.00,,,0.00,Wunderground v.1.15,2013-03-12 09:10:00,
2013-03-12 05:20:00,36.0,28.8,29.95,West,263,2.0,2.0,75,0.00,,,0.00,Wunderground v.1.15,2013-03-12 09:20:00,
2013-03-12 05:30:00,36.0,28.8,29.96,West,262,2.0,6.0,75,0.00,,,0.00,Wunderground v.1.15,2013-03-12 09:30:00,
2013-03-12 05:40:00,36.0,28.8,29.96,NW,322,2.0,2.0,75,0.00,,,0.00,Wunderground v.1.15,2013-03-12 09:40:00,
2013-03-12 05:50:00,36.0,28.8,29.96,SW,235,2.0,2.0,75,0.00,,,0.00,Wunderground v.1.15,2013-03-12 09:50:00,
2013-03-12 06:00:00,36.0,28.8,29.97,North,355,2.0,2.0,75,0.00,,,0.00,Wunderground v.1.15,2013-03-12 10:00:00,
2013-03-12 06:10:00,35.9,28.7,29.96,West,272,2.0,2.0,75,0.00,,,0.00,Wunderground v.1.15,2013-03-12 10:10:00,
2013-03-12 06:20:00,35.9,28.7,29.97,WNW,292,3.0,3.0,75,0.00,,,0.00,Wunderground v.1.15,2013-03-12 10:20:00,
2013-03-12 06:30:00,36.0,28.8,29.97,NW,323,1.0,1.0,75,0.00,,,0.00,Wunderground v.1.15,2013-03-12 10:30:00,
2013-03-12 06:40:00,36.1,28.9,29.98,NW,313,1.0,3.0,75,0.00,,,0.00,Wunderground v.1.15,2013-03-12 10:40:00,
2013-03-12 06:50:00,35.9,28.7,29.98,WSW,258,2.0,3.0,75,0.00,,,0.00,Wunderground v.1.15,2013-03-12 10:50:00,
2013-03-12 07:00:00,35.7,28.2,29.98,West,273,3.0,3.0,74,0.00,,,0.00,Wunderground v.1.15,2013-03-12 11:00:00,
2013-03-12 07:10:00,35.8,28.3,29.98,WNW,291,2.0,3.0,74,0.00,,,0.00,Wunderground v.1.15,2013-03-12 11:10:00,
2013-03-12 07:20:00,35.8,28.0,29.99,WSW,240,2.0,3.0,73,0.00,,,0.00,Wunderground v.1.15,2013-03-12 11:20:00,
2013-03-12 07:30:00,35.6,28.1,29.98,WNW,294,3.0,3.0,74,0.00,,,0.00,Wunderground v.1.15,2013-03-12 11:30:00,
2013-03-12 07:40:00,35.7,28.2,29.99,SW,236,2.0,3.0,74,0.00,,,0.00,Wunderground v.1.15,2013-03-12 11:40:00,
2013-03-12 07:50:00,35.6,27.8,30.00,West,259,3.0,4.0,73,0.00,,,0.00,Wunderground v.1.15,2013-03-12 11:50:00,
2013-03-12 08:00:00,35.6,27.1,30.00,NW,313,3.0,3.0,71,0.00,,,0.00,Wunderground v.1.15,2013-03-12 12:00:00,
2013-03-12 08:10:00,35.6,26.4,30.01,NNW,338,3.0,3.0,69,0.00,,,0.00,Wunderground v.1.15,2013-03-12 12:10:00,
2013-03-12 08:20:00,35.6,26.8,30.00,NW,326,2.0,2.0,70,0.00,,,0.00,Wunderground v.1.15,2013-03-12 12:20:00,
2013-03-12 08:30:00,35.6,26.8,30.00,SSW,204,2.0,2.0,70,0.00,,,0.00,Wunderground v.1.15,2013-03-12 12:30:00,
2013-03-12 08:40:00,35.7,26.9,30.00,NW,307,1.0,1.0,70,0.00,,,0.00,Wunderground v.1.15,2013-03-12 12:40:00,
2013-03-12 08:50:00,35.7,27.6,30.00,WSW,245,2.0,3.0,72,0.00,,,0.00,Wunderground v.1.15,2013-03-12 12:50:00,
2013-03-12 09:00:00,35.6,27.5,30.01,West,273,2.0,2.0,72,0.00,,,0.00,Wunderground v.1.15,2013-03-12 13:00:00,
2013-03-12 09:09:00,35.7,27.6,30.02,West,269,2.0,2.0,72,0.00,,,0.00,Wunderground v.1.15,2013-03-12 13:09:00,
2013-03-12 09:19:00,35.7,27.2,30.02,WSW,244,2.0,4.0,71,0.00,,,0.00,Wunderground v.1.15,2013-03-12 13:19:00,
2013-03-12 09:30:00,35.6,27.1,30.02,WSW,246,3.0,3.0,71,0.00,,,0.00,Wunderground v.1.15,2013-03-12 13:30:00,
2013-03-12 09:40:00,35.6,27.1,30.02,SW,226,3.0,3.0,71,0.00,,,0.00,Wunderground v.1.15,2013-03-12 13:40:00,
2013-03-12 09:50:00,36.1,27.9,30.02,SW,224,2.0,2.0,72,0.00,,,0.00,Wunderground v.1.15,2013-03-12 13:50:00,
2013-03-12 10:00:00,36.3,27.4,30.03,WNW,284,2.0,3.0,70,0.00,,,0.00,Wunderground v.1.15,2013-03-12 14:00:00,
2013-03-12 10:10:00,36.5,27.3,30.03,WSW,257,3.0,3.0,69,0.00,,,0.00,Wunderground v.1.15,2013-03-12 14:10:00,
2013-03-12 10:20:00,36.8,27.9,30.03,SW,219,3.0,4.0,70,0.00,,,0.00,Wunderground v.1.15,2013-03-12 14:20:00,
2013-03-12 10:30:00,36.4,27.2,30.02,West,267,3.0,3.0,69,0.00,,,0.00,Wunderground v.1.15,2013-03-12 14:30:00,
2013-03-12 10:39:00,37.2,27.6,30.03,NW,306,3.0,3.0,68,0.00,,,0.00,Wunderground v.1.15,2013-03-12 14:39:00,
2013-03-12 10:50:00,38.0,28.0,30.04,WSW,238,2.0,5.0,67,0.00,,,0.00,Wunderground v.1.15,2013-03-12 14:50:00,
2013-03-12 11:00:00,37.9,27.9,30.05,West,262,4.0,4.0,67,0.00,,,0.00,Wunderground v.1.15,2013-03-12 15:00:00,
2013-03-12 11:10:00,38.3,27.2,30.05,NW,320,3.0,4.0,64,0.00,,,0.00,Wunderground v.1.15,2013-03-12 15:10:00,
2013-03-12 11:19:00,38.3,27.9,30.05,SW,227,3.0,5.0,66,0.00,,,0.00,Wunderground v.1.15,2013-03-12 15:19:00,
2013-03-12 11:30:00,39.6,28.0,30.06,NW,315,4.0,4.0,63,0.00,,,0.00,Wunderground v.1.15,2013-03-12 15:30:00,
2013-03-12 11:40:00,40.3,27.5,30.06,West,281,4.0,4.0,60,0.00,,,0.00,Wunderground v.1.15,2013-03-12 15:40:00,
2013-03-12 11:50:00,40.4,28.0,30.06,West,271,4.0,5.0,61,0.00,,,0.00,Wunderground v.1.15,2013-03-12 15:50:00,
2013-03-12 12:00:00,40.4,28.0,30.05,NNW,340,4.0,4.0,61,0.00,,,0.00,Wunderground v.1.15,2013-03-12 16:00:00,
2013-03-12 12:10:00,40.2,27.8,30.05,SSW,197,3.0,3.0,61,0.00,,,0.00,Wunderground v.1.15,2013-03-12 16:10:00,
2013-03-12 12:20:00,40.8,28.0,30.05,WSW,246,4.0,7.0,60,0.00,,,0.00,Wunderground v.1.15,2013-03-12 16:20:00,
2013-03-12 12:29:00,41.3,28.9,30.05,SSW,213,3.0,3.0,61,0.00,,,0.00,Wunderground v.1.15,2013-03-12 16:29:00,
2013-03-12 12:40:00,40.9,27.7,30.06,WSW,244,6.0,6.0,59,0.00,,,0.00,Wunderground v.1.15,2013-03-12 16:40:00,
2013-03-12 12:50:00,41.2,28.4,30.06,NW,325,5.0,5.0,60,0.00,,,0.00,Wunderground v.1.15,2013-03-12 16:50:00,
2013-03-12 13:00:00,41.8,28.1,30.05,WSW,245,5.0,9.0,58,0.00,,,0.00,Wunderground v.1.15,2013-03-12 17:00:00,
2013-03-12 13:10:00,42.5,27.9,30.06,WSW,251,4.0,4.0,56,0.00,,,0.00,Wunderground v.1.15,2013-03-12 17:10:00,
2013-03-12 13:19:00,43.2,28.5,30.06,WNW,288,4.0,5.0,56,0.00,,,0.00,Wunderground v.1.15,2013-03-12 17:19:00,
2013-03-12 13:30:00,43.1,27.1,30.05,SW,227,5.0,5.0,53,0.00,,,0.00,Wunderground v.1.15,2013-03-12 17:30:00,
2013-03-12 13:40:00,43.6,27.1,30.05,WSW,257,5.0,5.0,52,0.00,,,0.00,Wunderground v.1.15,2013-03-12 17:40:00,
2013-03-12 13:49:00,44.1,27.6,30.05,NW,314,4.0,4.0,52,0.00,,,0.00,Wunderground v.1.15,2013-03-12 17:49:00,
2013-03-12 14:00:00,44.6,28.5,30.05,West,268,4.0,4.0,53,0.00,,,0.00,Wunderground v.1.15,2013-03-12 18:00:00,
2013-03-12 14:10:00,44.9,27.8,30.05,NW,315,4.0,4.0,51,0.00,,,0.00,Wunderground v.1.15,2013-03-12 18:10:00,
2013-03-12 14:20:00,44.5,28.0,30.04,SW,225,5.0,8.0,52,0.00,,,0.00,Wunderground v.1.15,2013-03-12 18:20:00,
2013-03-12 14:30:00,45.2,29.1,30.04,West,272,5.0,5.0,53,0.00,,,0.00,Wunderground v.1.15,2013-03-12 18:30:00,
2013-03-12 14:39:00,46.1,29.0,30.04,NW,319,3.0,7.0,51,0.00,,,0.00,Wunderground v.1.15,2013-03-12 18:39:00,
2013-03-12 14:50:00,45.8,28.2,30.04,West,261,4.0,4.0,50,0.00,,,0.00,Wunderground v.1.15,2013-03-12 18:50:00,
2013-03-12 15:00:00,45.8,29.2,30.03,SW,229,5.0,5.0,52,0.00,,,0.00,Wunderground v.1.15,2013-03-12 19:00:00,
2013-03-12 15:10:00,45.6,29.4,30.02,WNW,297,5.0,5.0,53,0.00,,,0.00,Wunderground v.1.15,2013-03-12 19:10:00,
2013-03-12 15:20:00,45.8,28.7,30.02,WSW,248,6.0,6.0,51,0.00,,,0.00,Wunderground v.1.15,2013-03-12 19:20:00,
2013-03-12 15:30:00,46.2,28.6,30.02,SSW,213,6.0,7.0,50,0.00,,,0.00,Wunderground v.1.15,2013-03-12 19:30:00,
2013-03-12 15:40:00,46.7,29.5,30.02,WSW,237,6.0,6.0,51,0.00,,,0.00,Wunderground v.1.15,2013-03-12 19:40:00,
2013-03-12 15:50:00,47.2,28.5,30.02,SW,233,5.0,9.0,48,0.00,,,0.00,Wunderground v.1.15,2013-03-12 19:50:00,
2013-03-12 16:00:00,47.0,28.3,30.02,NW,321,5.0,7.0,48,0.00,,,0.00,Wunderground v.1.15,2013-03-12 20:00:00,
2013-03-12 16:10:00,47.5,28.3,30.01,NNE,30,5.0,5.0,47,0.00,,,0.00,Wunderground v.1.15,2013-03-12 20:10:00,
2013-03-12 16:20:00,47.4,28.2,30.01,WNW,287,5.0,5.0,47,0.00,,,0.00,Wunderground v.1.15,2013-03-12 20:20:00,
2013-03-12 16:29:00,47.4,28.2,30.02,NW,319,5.0,5.0,47,0.00,,,0.00,Wunderground v.1.15,2013-03-12 20:29:00,
2013-03-12 16:40:00,48.2,28.9,30.02,West,271,3.0,4.0,47,0.00,,,0.00,Wunderground v.1.15,2013-03-12 20:40:00,
2013-03-12 16:50:00,48.0,28.2,30.01,WSW,244,4.0,4.0,46,0.00,,,0.00,Wunderground v.1.15,2013-03-12 20:50:00,
2013-03-12 17:00:00,47.4,27.6,30.02,WNW,295,6.0,7.0,46,0.00,,,0.00,Wunderground v.1.15,2013-03-12 21:00:00,
2013-03-12 17:09:00,47.9,28.1,30.01,NW,307,4.0,8.0,46,0.00,,,0.00,Wunderground v.1.15,2013-03-12 21:09:00,
2013-03-12 17:20:00,47.9,28.1,30.01,WSW,257,4.0,5.0,46,0.00,,,0.00,Wunderground v.1.15,2013-03-12 21:20:00,
2013-03-12 17:30:00,48.3,29.0,30.01,NNE,31,3.0,3.0,47,0.00,,,0.00,Wunderground v.1.15,2013-03-12 21:30:00,
2013-03-12 17:40:00,48.2,27.3,30.01,WNW,295,4.0,4.0,44,0.00,,,0.00,Wunderground v.1.15,2013-03-12 21:40:00,
2013-03-12 17:49:00,47.6,26.7,30.02,SW,229,5.0,5.0,44,0.00,,,0.00,Wunderground v.1.15,2013-03-12 21:49:00,
2013-03-12 18:00:00,47.1,26.3,30.03,WSW,248,3.0,5.0,44,0.00,,,0.00,Wunderground v.1.15,2013-03-12 22:00:00,
2013-03-12 18:10:00,46.6,25.8,30.02,NNW,329,4.0,4.0,44,0.00,,,0.00,Wunderground v.1.15,2013-03-12 22:10:00,
2013-03-12 18:19:00,46.4,26.7,30.02,South,184,4.0,4.0,46,0.00,,,0.00,Wunderground v.1.15,2013-03-12 22:19:00,
2013-03-12 18:30:00,46.2,26.0,30.03,NW,313,4.0,4.0,45,0.00,,,0.00,Wunderground v.1.15,2013-03-12 22:30:00,
2013-03-12 18:40:00,45.4,26.3,30.03,NW,315,4.0,5.0,47,0.00,,,0.00,Wunderground v.1.15,2013-03-12 22:40:00,
2013-03-12 18:50:00,45.2,26.1,30.03,WNW,296,3.0,3.0,47,0.00,,,0.00,Wunderground v.1.15,2013-03-12 22:50:00,
2013-03-12 19:00:00,44.9,26.4,30.03,WNW,293,4.0,7.0,48,0.00,,,0.00,Wunderground v.1.15,2013-03-12 23:00:00,
2013-03-12 19:09:00,44.6,26.6,30.03,North,9,3.0,4.0,49,0.00,,,0.00,Wunderground v.1.15,2013-03-12 23:09:00,
2013-03-12 19:20:00,44.5,26.5,30.04,West,280,2.0,2.0,49,0.00,,,0.00,Wunderground v.1.15,2013-03-12 23:20:00,
2013-03-12 19:30:00,44.3,26.3,30.03,WNW,296,3.0,3.0,49,0.00,,,0.00,Wunderground v.1.15,2013-03-12 23:30:00,
2013-03-12 19:39:00,44.2,27.7,30.03,NW,311,1.0,1.0,52,0.00,,,0.00,Wunderground v.1.15,2013-03-12 23:39:00,
2013-03-12 19:49:00,43.9,27.4,30.04,West,274,1.0,1.0,52,0.00,,,0.00,Wunderground v.1.15,2013-03-12 23:49:00,
2013-03-12 20:00:00,43.8,27.3,30.04,West,275,3.0,3.0,52,0.00,,,0.00,Wunderground v.1.15,2013-03-13 00:00:00,
2013-03-12 20:10:00,43.7,27.7,30.04,WSW,238,2.0,2.0,53,0.00,,,0.00,Wunderground v.1.15,2013-03-13 00:10:00,
2013-03-12 20:20:00,43.8,28.2,30.05,NW,308,2.0,3.0,54,0.00,,,0.00,Wunderground v.1.15,2013-03-13 00:20:00,
2013-03-12 20:30:00,43.6,28.9,30.05,WNW,286,4.0,4.0,56,0.00,,,0.00,Wunderground v.1.15,2013-03-13 00:30:00,
2013-03-12 20:40:00,43.3,29.1,30.05,NW,313,3.0,3.0,57,0.00,,,0.00,Wunderground v.1.15,2013-03-13 00:40:00,
2013-03-12 20:50:00,43.2,29.8,30.05,WNW,284,3.0,3.0,59,0.00,,,0.00,Wunderground v.1.15,2013-03-13 00:50:00,
2013-03-12 21:00:00,43.2,29.8,30.06,North,360,3.0,7.0,59,0.00,,,0.00,Wunderground v.1.15,2013-03-13 01:00:00,
2013-03-12 21:10:00,42.3,31.7,30.07,North,349,5.0,6.0,66,0.00,,,0.00,Wunderground v.1.15,2013-03-13 01:10:00,
2013-03-12 21:20:00,41.3,33.0,30.08,NNW,348,4.0,4.0,72,0.00,,,0.00,Wunderground v.1.15,2013-03-13 01:20:00,
2013-03-12 21:30:00,40.4,33.1,30.08,NNE,14,4.0,4.0,75,0.00,,,0.00,Wunderground v.1.15,2013-03-13 01:30:00,
2013-03-12 21:39:00,40.0,33.0,30.08,NW,322,2.0,2.0,76,0.00,,,0.00,Wunderground v.1.15,2013-03-13 01:39:00,
2013-03-12 21:50:00,40.0,33.0,30.08,NW,324,3.0,3.0,76,0.00,,,0.00,Wunderground v.1.15,2013-03-13 01:50:00,
2013-03-12 22:00:00,39.8,32.8,30.08,NW,318,3.0,3.0,76,0.00,,,0.00,Wunderground v.1.15,2013-03-13 02:00:00,
2013-03-12 22:10:00,39.8,32.8,30.08,NNW,333,1.0,3.0,76,0.00,,,0.00,Wunderground v.1.15,2013-03-13 02:10:00,
2013-03-12 22:19:00,39.7,32.4,30.09,NW,317,2.0,3.0,75,0.00,,,0.00,Wunderground v.1.15,2013-03-13 02:19:00,
2013-03-12 22:30:00,39.4,32.5,30.09,NE,36,2.0,2.0,76,0.00,,,0.00,Wunderground v.1.15,2013-03-13 02:30:00,
2013-03-12 22:40:00,39.2,32.3,30.09,West,269,1.0,1.0,76,0.00,,,0.00,Wunderground v.1.15,2013-03-13 02:40:00,
2013-03-12 22:50:00,38.9,32.3,30.09,West,276,1.0,1.0,77,0.00,,,0.00,Wunderground v.1.15,2013-03-13 02:50:00,
2013-03-12 23:00:00,38.9,32.3,30.09,West,269,1.0,1.0,77,0.00,,,0.00,Wunderground v.1.15,2013-03-13 03:00:00,
2013-03-12 23:09:00,38.7,32.1,30.09,NNW,341,1.0,1.0,77,0.00,,,0.00,Wunderground v.1.15,2013-03-13 03:09:00,
2013-03-12 23:20:00,38.5,31.9,30.09,NNW,340,1.0,1.0,77,0.00,,,0.00,Wunderground v.1.15,2013-03-13 03:20:00,
2013-03-12 23:30:00,38.3,31.7,30.09,WNW,300,0.0,0.0,77,0.00,,,0.00,Wunderground v.1.15,2013-03-13 03:30:00,
2013-03-12 23:40:00,38.2,31.6,30.09,West,271,1.0,2.0,77,0.00,,,0.00,Wunderground v.1.15,2013-03-13 03:40:00,
2013-03-12 23:49:00,38.3,32.0,30.09,West,271,0.0,0.0,78,0.00,,,0.00,Wunderground v.1.15,2013-03-13 03:49:00,